createdAt,value
2022-07-25T00:08:00.877Z,19
2022-07-25T00:18:07.278Z,24
2022-07-25T00:28:12.764Z,21
2022-07-25T00:38:17.586Z,17
2022-07-25T00:48:23.086Z,18
2022-07-25T00:58:29.700Z,17
2022-07-25T01:08:36.771Z,21
2022-07-25T01:18:41.925Z,30
2022-07-25T01:28:44.910Z,28
2022-07-25T01:38:54.627Z,22
2022-07-25T01:48:58.534Z,20
2022-07-25T01:59:04.189Z,19
2022-07-25T02:09:09.617Z,18
2022-07-25T02:19:13.719Z,19
2022-07-25T02:29:22.373Z,20
2022-07-25T02:39:21.932Z,18
2022-07-25T02:49:29.199Z,19
2022-07-25T02:59:34.254Z,19
2022-07-25T03:09:41.946Z,17
2022-07-25T03:19:46.284Z,18
2022-07-25T03:29:50.305Z,22
2022-07-25T03:39:55.388Z,20
2022-07-25T03:50:01.369Z,17
2022-07-25T04:00:08.195Z,21
2022-07-25T04:10:19.852Z,17
2022-07-25T04:20:21.440Z,16
2022-07-25T04:30:25.447Z,19
2022-07-25T04:40:29.350Z,17
2022-07-25T04:50:34.754Z,19
2022-07-25T05:00:39.233Z,19
2022-07-25T05:10:43.182Z,18
2022-07-25T05:20:48.146Z,17
2022-07-25T05:30:52.788Z,17
2022-07-25T05:40:58.202Z,21
2022-07-25T05:51:04.281Z,24
2022-07-25T06:01:07.787Z,22
2022-07-25T06:51:35.542Z,29
2022-07-25T07:01:40.279Z,45
2022-07-25T07:11:47.293Z,55
2022-07-25T07:22:04.449Z,33
2022-07-25T07:32:08.611Z,29
2022-07-25T07:42:14.723Z,20
2022-07-25T07:52:19.993Z,49
2022-07-25T08:02:26.989Z,18
2022-07-25T08:12:32.172Z,17
2022-07-25T08:22:36.907Z,21
2022-07-25T08:32:42.305Z,20
2022-07-25T08:42:53.130Z,18
2022-07-25T08:53:31.938Z,18
2022-07-25T09:03:25.052Z,15
2022-07-25T09:13:30.045Z,15
2022-07-25T09:23:34.159Z,19
2022-07-25T09:33:41.095Z,20
2022-07-25T09:43:46.857Z,17
2022-07-25T09:53:52.846Z,15
2022-07-25T10:03:56.758Z,16
2022-07-25T10:14:01.255Z,14
2022-07-25T10:24:07.229Z,14
2022-07-25T10:34:13.414Z,11
2022-07-25T10:44:24.313Z,14
2022-07-25T10:54:45.162Z,12
2022-07-25T11:04:52.113Z,12
2022-07-25T11:14:57.010Z,13
2022-07-25T11:25:02.596Z,11
2022-07-25T11:35:11.042Z,14
2022-07-25T11:45:21.782Z,11
2022-07-25T11:55:22.377Z,12
2022-07-25T12:05:28.519Z,13
2022-07-25T12:15:35.431Z,14
2022-07-25T12:25:41.086Z,11
2022-07-25T12:35:47.088Z,12
2022-07-25T12:45:52.793Z,11
2022-07-25T12:55:59.625Z,13
2022-07-25T13:06:05.463Z,11
2022-07-25T13:16:12.466Z,12
2022-07-25T13:26:18.488Z,11
2022-07-25T13:36:27.485Z,13
2022-07-25T13:46:31.237Z,12
2022-07-25T13:56:34.945Z,12
2022-07-25T14:06:41.170Z,12
2022-07-25T14:16:46.219Z,12
2022-07-25T14:26:51.878Z,12
2022-07-25T14:36:57.201Z,10
2022-07-25T14:47:02.275Z,13
2022-07-25T14:57:08.506Z,13
2022-07-25T15:07:16.718Z,15
2022-07-25T15:17:21.918Z,15
2022-07-25T15:28:11.327Z,15
2022-07-25T15:38:17.205Z,12
2022-07-25T15:48:27.049Z,12
2022-07-25T15:58:28.893Z,14
2022-07-25T16:08:33.576Z,13
2022-07-25T16:18:45.210Z,12
2022-07-25T16:28:46.562Z,12
2022-07-25T16:38:51.187Z,12
2022-07-25T16:48:55.628Z,12
2022-07-25T16:59:01.716Z,11
2022-07-25T17:09:07.386Z,11
2022-07-25T17:19:12.159Z,14
2022-07-25T17:29:17.270Z,13
2022-07-25T17:39:22.238Z,11
2022-07-25T17:49:28.346Z,14
2022-07-25T17:59:34.807Z,14
2022-07-25T18:09:39.532Z,12
2022-07-25T18:19:45.911Z,15
2022-07-25T18:29:51.987Z,11
2022-07-25T18:39:58.697Z,15
2022-07-25T18:50:06.557Z,12
2022-07-25T19:00:09.508Z,13
2022-07-25T19:10:14.540Z,12
2022-07-25T19:20:19.600Z,13
2022-07-25T19:30:26.623Z,14
2022-07-25T19:40:31.680Z,14
2022-07-25T19:50:38.518Z,14
2022-07-25T20:00:43.944Z,14
2022-07-25T20:10:56.273Z,13
2022-07-25T20:20:53.932Z,13
2022-07-25T20:31:05.709Z,15
2022-07-25T21:11:21.489Z,13
2022-07-25T21:21:26.112Z,18
2022-07-25T21:31:31.541Z,25
2022-07-25T21:41:36.466Z,14
2022-07-25T21:52:14.459Z,15
2022-07-25T22:02:06.623Z,13
2022-07-25T22:12:28.620Z,16
2022-07-25T22:22:21.011Z,14
2022-07-25T22:32:29.120Z,15
2022-07-25T22:42:34.664Z,14
2022-07-25T22:52:41.726Z,17
2022-07-25T23:02:48.481Z,14
2022-07-25T23:12:54.626Z,13
2022-07-25T23:22:58.526Z,11
2022-07-25T23:33:03.727Z,10
2022-07-25T23:43:13.593Z,13
2022-07-25T23:53:16.432Z,10
